Manvel, North Dakota
Current Conditions -  °F | °C
As of 5:53 AM on Saturday 25 Oct 2014 (Local Time) from KGFK Reporting Station
Few Clouds Few Clouds  
Wind Chill: 36°   Ceiling: Unl
Heat Index: 40°   Visibility: 10mi
Dew Point: 32°   Wind: 6mph
Humidity: 73%   Direction: 250°WSW
Pressure: 30"   Gusts: NA
Location:  48.08°N, 97.18°W
Report Text: KGFK 251053Z 25005KT 10SM FEW200 04/00 A3000 RMK AO2 SLP164 T00440000
Loading
Personal Weather Stations






























Interactive Weather Map
Tropical Storm Tracking
New forecast layout! Learn more

10-Day Weather Forecast

Advertisements
Track Severe Weather on mobile